sensor_id;sensor_type;location;lat;lon;timestamp;P1;durP1;ratioP1;P2;durP2;ratioP2
70301;SDS011;57706;56.326;43.882;2023-04-27T00:00:46;6.03;;;3.22;;
70301;SDS011;57706;56.326;43.882;2023-04-27T00:03:12;3.00;;;2.67;;
70301;SDS011;57706;56.326;43.882;2023-04-27T00:05:38;3.05;;;2.63;;
70301;SDS011;57706;56.326;43.882;2023-04-27T00:08:04;5.32;;;2.42;;
70301;SDS011;57706;56.326;43.882;2023-04-27T00:10:31;3.55;;;2.63;;
70301;SDS011;57706;56.326;43.882;2023-04-27T00:12:57;4.68;;;3.15;;
70301;SDS011;57706;56.326;43.882;2023-04-27T00:15:23;3.13;;;2.78;;
70301;SDS011;57706;56.326;43.882;2023-04-27T00:17:50;4.13;;;2.92;;
70301;SDS011;57706;56.326;43.882;2023-04-27T00:20:16;3.33;;;2.97;;
70301;SDS011;57706;56.326;43.882;2023-04-27T00:22:43;3.45;;;3.03;;
70301;SDS011;57706;56.326;43.882;2023-04-27T00:25:10;5.05;;;3.22;;
70301;SDS011;57706;56.326;43.882;2023-04-27T00:27:36;4.93;;;3.30;;
70301;SDS011;57706;56.326;43.882;2023-04-27T00:30:02;3.22;;;2.83;;
70301;SDS011;57706;56.326;43.882;2023-04-27T00:32:32;4.53;;;3.22;;
70301;SDS011;57706;56.326;43.882;2023-04-27T00:34:59;3.75;;;2.80;;
70301;SDS011;57706;56.326;43.882;2023-04-27T00:37:25;3.30;;;2.70;;
70301;SDS011;57706;56.326;43.882;2023-04-27T00:39:51;3.50;;;2.90;;
70301;SDS011;57706;56.326;43.882;2023-04-27T00:42:17;3.72;;;2.90;;
70301;SDS011;57706;56.326;43.882;2023-04-27T00:44:45;2.90;;;2.63;;
70301;SDS011;57706;56.326;43.882;2023-04-27T00:47:12;3.10;;;2.80;;
70301;SDS011;57706;56.326;43.882;2023-04-27T00:49:39;3.67;;;2.95;;
70301;SDS011;57706;56.326;43.882;2023-04-27T00:52:06;5.10;;;3.70;;
70301;SDS011;57706;56.326;43.882;2023-04-27T00:54:32;4.28;;;2.88;;
70301;SDS011;57706;56.326;43.882;2023-04-27T00:56:58;4.07;;;2.80;;
70301;SDS011;57706;56.326;43.882;2023-04-27T00:59:25;4.10;;;3.28;;
70301;SDS011;57706;56.326;43.882;2023-04-27T01:01:51;3.47;;;3.00;;
70301;SDS011;57706;56.326;43.882;2023-04-27T01:04:19;7.95;;;3.05;;
70301;SDS011;57706;56.326;43.882;2023-04-27T01:06:45;3.22;;;2.88;;
70301;SDS011;57706;56.326;43.882;2023-04-27T01:09:12;3.55;;;2.92;;
70301;SDS011;57706;56.326;43.882;2023-04-27T01:11:38;3.60;;;2.78;;
70301;SDS011;57706;56.326;43.882;2023-04-27T01:14:05;5.30;;;2.90;;
70301;SDS011;57706;56.326;43.882;2023-04-27T01:16:32;3.83;;;3.13;;
70301;SDS011;57706;56.326;43.882;2023-04-27T01:18:58;3.58;;;3.20;;
70301;SDS011;57706;56.326;43.882;2023-04-27T01:21:24;4.00;;;3.22;;
70301;SDS011;57706;56.326;43.882;2023-04-27T01:23:51;4.90;;;3.15;;
70301;SDS011;57706;56.326;43.882;2023-04-27T01:26:17;4.68;;;2.90;;
70301;SDS011;57706;56.326;43.882;2023-04-27T01:28:43;3.35;;;2.72;;
70301;SDS011;57706;56.326;43.882;2023-04-27T01:31:10;3.05;;;2.75;;
70301;SDS011;57706;56.326;43.882;2023-04-27T01:33:36;3.50;;;2.80;;
70301;SDS011;57706;56.326;43.882;2023-04-27T01:36:03;4.32;;;3.22;;
70301;SDS011;57706;56.326;43.882;2023-04-27T01:38:29;2.90;;;2.60;;
70301;SDS011;57706;56.326;43.882;2023-04-27T01:40:56;4.15;;;3.05;;
70301;SDS011;57706;56.326;43.882;2023-04-27T01:43:29;3.33;;;2.88;;
70301;SDS011;57706;56.326;43.882;2023-04-27T01:46:03;3.05;;;2.65;;
70301;SDS011;57706;56.326;43.882;2023-04-27T01:48:30;3.80;;;2.72;;
70301;SDS011;57706;56.326;43.882;2023-04-27T01:50:56;3.15;;;2.72;;
70301;SDS011;57706;56.326;43.882;2023-04-27T01:53:22;3.30;;;2.67;;
70301;SDS011;57706;56.326;43.882;2023-04-27T01:55:48;5.88;;;2.60;;
70301;SDS011;57706;56.326;43.882;2023-04-27T01:58:14;3.67;;;3.15;;
70301;SDS011;57706;56.326;43.882;2023-04-27T02:00:40;2.97;;;2.65;;
70301;SDS011;57706;56.326;43.882;2023-04-27T02:03:06;6.05;;;2.95;;
70301;SDS011;57706;56.326;43.882;2023-04-27T02:05:32;4.30;;;2.67;;
70301;SDS011;57706;56.326;43.882;2023-04-27T02:07:57;4.05;;;2.95;;
70301;SDS011;57706;56.326;43.882;2023-04-27T02:10:23;3.40;;;3.10;;
70301;SDS011;57706;56.326;43.882;2023-04-27T02:12:55;3.22;;;2.92;;
70301;SDS011;57706;56.326;43.882;2023-04-27T02:15:21;3.05;;;2.75;;
70301;SDS011;57706;56.326;43.882;2023-04-27T02:17:47;4.28;;;2.95;;
70301;SDS011;57706;56.326;43.882;2023-04-27T02:20:13;3.17;;;2.72;;
70301;SDS011;57706;56.326;43.882;2023-04-27T02:22:40;3.65;;;2.50;;
70301;SDS011;57706;56.326;43.882;2023-04-27T02:25:12;4.05;;;2.60;;
70301;SDS011;57706;56.326;43.882;2023-04-27T02:27:39;3.33;;;2.67;;
70301;SDS011;57706;56.326;43.882;2023-04-27T02:30:06;5.28;;;2.50;;
70301;SDS011;57706;56.326;43.882;2023-04-27T02:32:33;2.72;;;2.53;;
70301;SDS011;57706;56.326;43.882;2023-04-27T02:35:00;3.95;;;2.58;;
70301;SDS011;57706;56.326;43.882;2023-04-27T02:37:31;3.72;;;2.65;;
70301;SDS011;57706;56.326;43.882;2023-04-27T02:39:57;5.35;;;2.95;;
70301;SDS011;57706;56.326;43.882;2023-04-27T02:42:23;2.88;;;2.40;;
70301;SDS011;57706;56.326;43.882;2023-04-27T02:44:49;2.90;;;2.42;;
70301;SDS011;57706;56.326;43.882;2023-04-27T02:47:15;3.78;;;2.95;;
70301;SDS011;57706;56.326;43.882;2023-04-27T02:49:41;2.55;;;2.15;;
70301;SDS011;57706;56.326;43.882;2023-04-27T02:52:07;3.20;;;2.75;;
70301;SDS011;57706;56.326;43.882;2023-04-27T02:54:33;4.45;;;2.70;;
70301;SDS011;57706;56.326;43.882;2023-04-27T02:57:00;4.40;;;2.38;;
70301;SDS011;57706;56.326;43.882;2023-04-27T02:59:27;3.13;;;2.63;;
70301;SDS011;57706;56.326;43.882;2023-04-27T03:01:53;7.00;;;2.90;;
70301;SDS011;57706;56.326;43.882;2023-04-27T03:04:19;3.60;;;2.72;;
70301;SDS011;57706;56.326;43.882;2023-04-27T03:06:45;6.95;;;3.22;;
70301;SDS011;57706;56.326;43.882;2023-04-27T03:09:11;6.50;;;2.80;;
70301;SDS011;57706;56.326;43.882;2023-04-27T03:11:37;3.92;;;2.65;;
70301;SDS011;57706;56.326;43.882;2023-04-27T03:14:04;4.63;;;3.50;;
70301;SDS011;57706;56.326;43.882;2023-04-27T03:16:31;5.15;;;2.85;;
70301;SDS011;57706;56.326;43.882;2023-04-27T03:18:57;4.13;;;2.53;;
70301;SDS011;57706;56.326;43.882;2023-04-27T03:21:23;3.10;;;2.80;;
70301;SDS011;57706;56.326;43.882;2023-04-27T03:23:49;6.82;;;2.83;;
70301;SDS011;57706;56.326;43.882;2023-04-27T03:26:15;4.15;;;2.70;;
70301;SDS011;57706;56.326;43.882;2023-04-27T03:28:41;4.15;;;2.67;;
70301;SDS011;57706;56.326;43.882;2023-04-27T03:31:08;3.45;;;2.85;;
70301;SDS011;57706;56.326;43.882;2023-04-27T03:33:38;2.97;;;2.65;;
70301;SDS011;57706;56.326;43.882;2023-04-27T03:36:05;4.93;;;3.00;;
70301;SDS011;57706;56.326;43.882;2023-04-27T03:38:32;7.18;;;3.17;;
70301;SDS011;57706;56.326;43.882;2023-04-27T03:40:59;3.33;;;2.50;;
70301;SDS011;57706;56.326;43.882;2023-04-27T03:43:25;4.10;;;3.17;;
70301;SDS011;57706;56.326;43.882;2023-04-27T03:45:51;4.50;;;2.53;;
70301;SDS011;57706;56.326;43.882;2023-04-27T03:48:17;6.88;;;2.70;;
70301;SDS011;57706;56.326;43.882;2023-04-27T03:50:45;6.40;;;2.75;;
70301;SDS011;57706;56.326;43.882;2023-04-27T03:53:11;5.85;;;2.83;;
70301;SDS011;57706;56.326;43.882;2023-04-27T03:55:41;2.85;;;2.55;;
70301;SDS011;57706;56.326;43.882;2023-04-27T03:58:08;3.75;;;2.85;;
70301;SDS011;57706;56.326;43.882;2023-04-27T04:00:36;2.70;;;2.42;;
70301;SDS011;57706;56.326;43.882;2023-04-27T04:03:03;4.05;;;2.92;;
70301;SDS011;57706;56.326;43.882;2023-04-27T04:05:31;4.50;;;2.60;;
70301;SDS011;57706;56.326;43.882;2023-04-27T04:07:58;3.22;;;2.33;;
70301;SDS011;57706;56.326;43.882;2023-04-27T04:10:26;6.55;;;2.47;;
70301;SDS011;57706;56.326;43.882;2023-04-27T04:12:52;4.20;;;2.42;;
70301;SDS011;57706;56.326;43.882;2023-04-27T04:15:18;5.38;;;2.90;;
70301;SDS011;57706;56.326;43.882;2023-04-27T04:17:45;3.08;;;2.13;;
70301;SDS011;57706;56.326;43.882;2023-04-27T04:20:12;6.10;;;2.75;;
70301;SDS011;57706;56.326;43.882;2023-04-27T04:22:38;3.15;;;2.83;;
70301;SDS011;57706;56.326;43.882;2023-04-27T04:25:05;3.58;;;2.30;;
70301;SDS011;57706;56.326;43.882;2023-04-27T04:27:31;6.20;;;2.90;;
70301;SDS011;57706;56.326;43.882;2023-04-27T04:29:58;4.45;;;2.63;;
70301;SDS011;57706;56.326;43.882;2023-04-27T04:32:27;10.43;;;3.05;;
70301;SDS011;57706;56.326;43.882;2023-04-27T04:34:54;3.13;;;2.40;;
70301;SDS011;57706;56.326;43.882;2023-04-27T04:37:22;4.35;;;2.63;;
70301;SDS011;57706;56.326;43.882;2023-04-27T04:39:49;2.78;;;2.35;;
70301;SDS011;57706;56.326;43.882;2023-04-27T04:42:15;4.30;;;2.70;;
70301;SDS011;57706;56.326;43.882;2023-04-27T04:44:42;4.85;;;2.97;;
70301;SDS011;57706;56.326;43.882;2023-04-27T04:47:09;4.93;;;2.67;;
70301;SDS011;57706;56.326;43.882;2023-04-27T04:49:35;4.35;;;2.88;;
70301;SDS011;57706;56.326;43.882;2023-04-27T04:52:01;3.72;;;2.55;;
70301;SDS011;57706;56.326;43.882;2023-04-27T04:54:29;3.50;;;2.65;;
70301;SDS011;57706;56.326;43.882;2023-04-27T04:56:55;3.78;;;2.40;;
70301;SDS011;57706;56.326;43.882;2023-04-27T04:59:24;6.30;;;2.90;;
70301;SDS011;57706;56.326;43.882;2023-04-27T05:01:50;5.03;;;2.95;;
70301;SDS011;57706;56.326;43.882;2023-04-27T05:04:20;4.90;;;2.53;;
70301;SDS011;57706;56.326;43.882;2023-04-27T05:06:46;5.05;;;3.10;;
70301;SDS011;57706;56.326;43.882;2023-04-27T05:09:13;5.30;;;2.88;;
70301;SDS011;57706;56.326;43.882;2023-04-27T05:11:39;7.00;;;3.05;;
70301;SDS011;57706;56.326;43.882;2023-04-27T05:14:05;5.15;;;2.60;;
70301;SDS011;57706;56.326;43.882;2023-04-27T05:16:31;5.40;;;3.00;;
70301;SDS011;57706;56.326;43.882;2023-04-27T05:18:56;6.40;;;3.80;;
70301;SDS011;57706;56.326;43.882;2023-04-27T05:21:22;6.35;;;4.97;;
70301;SDS011;57706;56.326;43.882;2023-04-27T05:23:48;4.65;;;2.42;;
70301;SDS011;57706;56.326;43.882;2023-04-27T05:26:15;4.65;;;2.53;;
70301;SDS011;57706;56.326;43.882;2023-04-27T05:28:42;4.57;;;2.40;;
70301;SDS011;57706;56.326;43.882;2023-04-27T05:31:08;3.95;;;2.47;;
70301;SDS011;57706;56.326;43.882;2023-04-27T05:33:34;7.47;;;2.90;;
70301;SDS011;57706;56.326;43.882;2023-04-27T05:36:00;3.25;;;2.50;;
70301;SDS011;57706;56.326;43.882;2023-04-27T05:38:26;4.10;;;3.00;;
70301;SDS011;57706;56.326;43.882;2023-04-27T05:40:55;10.60;;;3.17;;
70301;SDS011;57706;56.326;43.882;2023-04-27T05:43:24;3.88;;;2.88;;
70301;SDS011;57706;56.326;43.882;2023-04-27T05:45:50;5.07;;;2.20;;
70301;SDS011;57706;56.326;43.882;2023-04-27T05:48:17;3.35;;;2.63;;
70301;SDS011;57706;56.326;43.882;2023-04-27T05:50:43;3.15;;;2.00;;
70301;SDS011;57706;56.326;43.882;2023-04-27T05:53:09;3.63;;;2.58;;
70301;SDS011;57706;56.326;43.882;2023-04-27T05:55:35;4.13;;;2.28;;
70301;SDS011;57706;56.326;43.882;2023-04-27T05:58:02;2.42;;;1.90;;
70301;SDS011;57706;56.326;43.882;2023-04-27T06:00:28;4.35;;;2.05;;
70301;SDS011;57706;56.326;43.882;2023-04-27T06:02:54;2.55;;;2.08;;
70301;SDS011;57706;56.326;43.882;2023-04-27T06:05:20;6.82;;;2.60;;
70301;SDS011;57706;56.326;43.882;2023-04-27T06:07:46;5.88;;;2.17;;
70301;SDS011;57706;56.326;43.882;2023-04-27T06:10:13;5.13;;;2.33;;
70301;SDS011;57706;56.326;43.882;2023-04-27T06:12:41;3.35;;;2.33;;
70301;SDS011;57706;56.326;43.882;2023-04-27T06:15:07;5.95;;;2.40;;
70301;SDS011;57706;56.326;43.882;2023-04-27T06:17:35;5.13;;;2.10;;
70301;SDS011;57706;56.326;43.882;2023-04-27T06:20:01;5.53;;;2.30;;
70301;SDS011;57706;56.326;43.882;2023-04-27T06:22:31;4.25;;;2.50;;
70301;SDS011;57706;56.326;43.882;2023-04-27T06:24:57;3.33;;;2.55;;
70301;SDS011;57706;56.326;43.882;2023-04-27T06:27:23;4.47;;;2.15;;
70301;SDS011;57706;56.326;43.882;2023-04-27T06:29:49;3.35;;;1.90;;
70301;SDS011;57706;56.326;43.882;2023-04-27T06:32:16;2.30;;;2.10;;
70301;SDS011;57706;56.326;43.882;2023-04-27T06:34:42;2.05;;;1.85;;
70301;SDS011;57706;56.326;43.882;2023-04-27T06:37:08;4.75;;;2.10;;
70301;SDS011;57706;56.326;43.882;2023-04-27T06:39:34;5.65;;;2.75;;
70301;SDS011;57706;56.326;43.882;2023-04-27T06:42:01;5.70;;;2.45;;
70301;SDS011;57706;56.326;43.882;2023-04-27T06:44:30;7.25;;;2.58;;
70301;SDS011;57706;56.326;43.882;2023-04-27T06:46:56;6.13;;;2.67;;
70301;SDS011;57706;56.326;43.882;2023-04-27T06:49:22;4.82;;;2.88;;
70301;SDS011;57706;56.326;43.882;2023-04-27T06:51:48;3.00;;;2.60;;
70301;SDS011;57706;56.326;43.882;2023-04-27T06:54:14;10.05;;;2.88;;
70301;SDS011;57706;56.326;43.882;2023-04-27T06:56:39;3.03;;;2.35;;
70301;SDS011;57706;56.326;43.882;2023-04-27T06:59:06;4.75;;;2.92;;
70301;SDS011;57706;56.326;43.882;2023-04-27T07:01:33;11.32;;;5.35;;
70301;SDS011;57706;56.326;43.882;2023-04-27T07:03:59;7.25;;;4.03;;
70301;SDS011;57706;56.326;43.882;2023-04-27T07:06:25;6.60;;;3.50;;
70301;SDS011;57706;56.326;43.882;2023-04-27T07:08:51;7.22;;;3.33;;
70301;SDS011;57706;56.326;43.882;2023-04-27T07:11:16;4.60;;;3.05;;
70301;SDS011;57706;56.326;43.882;2023-04-27T07:13:42;4.55;;;3.70;;
70301;SDS011;57706;56.326;43.882;2023-04-27T07:16:08;7.93;;;4.85;;
70301;SDS011;57706;56.326;43.882;2023-04-27T07:18:34;9.95;;;5.80;;
70301;SDS011;57706;56.326;43.882;2023-04-27T07:21:00;7.85;;;6.43;;
70301;SDS011;57706;56.326;43.882;2023-04-27T07:23:26;10.45;;;7.03;;
70301;SDS011;57706;56.326;43.882;2023-04-27T07:25:52;8.10;;;5.32;;
70301;SDS011;57706;56.326;43.882;2023-04-27T07:28:18;9.60;;;7.03;;
70301;SDS011;57706;56.326;43.882;2023-04-27T07:30:45;11.65;;;8.10;;
70301;SDS011;57706;56.326;43.882;2023-04-27T07:33:11;9.13;;;5.57;;
70301;SDS011;57706;56.326;43.882;2023-04-27T07:35:37;5.95;;;5.05;;
70301;SDS011;57706;56.326;43.882;2023-04-27T07:38:03;6.88;;;3.22;;
70301;SDS011;57706;56.326;43.882;2023-04-27T07:40:29;4.30;;;3.22;;
70301;SDS011;57706;56.326;43.882;2023-04-27T07:42:57;6.25;;;3.40;;
70301;SDS011;57706;56.326;43.882;2023-04-27T07:45:23;7.40;;;3.40;;
70301;SDS011;57706;56.326;43.882;2023-04-27T07:47:57;6.15;;;3.83;;
70301;SDS011;57706;56.326;43.882;2023-04-27T07:50:27;7.80;;;3.63;;
70301;SDS011;57706;56.326;43.882;2023-04-27T07:52:54;4.70;;;3.40;;
70301;SDS011;57706;56.326;43.882;2023-04-27T07:55:21;6.20;;;3.95;;
70301;SDS011;57706;56.326;43.882;2023-04-27T07:57:53;7.78;;;4.25;;
70301;SDS011;57706;56.326;43.882;2023-04-27T08:00:21;8.63;;;4.00;;
70301;SDS011;57706;56.326;43.882;2023-04-27T08:02:48;4.85;;;3.63;;
70301;SDS011;57706;56.326;43.882;2023-04-27T08:05:14;6.63;;;4.32;;
70301;SDS011;57706;56.326;43.882;2023-04-27T08:07:41;12.20;;;3.90;;
70301;SDS011;57706;56.326;43.882;2023-04-27T08:10:07;5.75;;;3.33;;
70301;SDS011;57706;56.326;43.882;2023-04-27T08:12:33;5.60;;;2.70;;
70301;SDS011;57706;56.326;43.882;2023-04-27T08:14:59;3.20;;;2.58;;
70301;SDS011;57706;56.326;43.882;2023-04-27T08:17:26;4.57;;;2.88;;
70301;SDS011;57706;56.326;43.882;2023-04-27T08:19:51;6.45;;;3.08;;
70301;SDS011;57706;56.326;43.882;2023-04-27T08:22:17;6.90;;;4.22;;
70301;SDS011;57706;56.326;43.882;2023-04-27T08:24:43;5.68;;;4.30;;
70301;SDS011;57706;56.326;43.882;2023-04-27T08:27:09;9.15;;;4.38;;
70301;SDS011;57706;56.326;43.882;2023-04-27T08:29:35;7.57;;;3.60;;
70301;SDS011;57706;56.326;43.882;2023-04-27T08:32:01;7.10;;;4.07;;
70301;SDS011;57706;56.326;43.882;2023-04-27T08:34:29;8.35;;;3.65;;
70301;SDS011;57706;56.326;43.882;2023-04-27T08:36:55;6.13;;;3.33;;
70301;SDS011;57706;56.326;43.882;2023-04-27T08:39:22;4.03;;;3.00;;
70301;SDS011;57706;56.326;43.882;2023-04-27T08:41:48;5.50;;;3.47;;
70301;SDS011;57706;56.326;43.882;2023-04-27T08:44:14;3.90;;;2.95;;
70301;SDS011;57706;56.326;43.882;2023-04-27T08:46:40;6.00;;;2.92;;
70301;SDS011;57706;56.326;43.882;2023-04-27T08:49:06;3.47;;;2.97;;
70301;SDS011;57706;56.326;43.882;2023-04-27T08:51:32;2.40;;;2.20;;
70301;SDS011;57706;56.326;43.882;2023-04-27T08:53:58;3.95;;;2.17;;
70301;SDS011;57706;56.326;43.882;2023-04-27T08:56:25;4.25;;;2.33;;
70301;SDS011;57706;56.326;43.882;2023-04-27T08:58:53;7.90;;;2.40;;
70301;SDS011;57706;56.326;43.882;2023-04-27T09:01:21;4.55;;;2.28;;
70301;SDS011;57706;56.326;43.882;2023-04-27T09:03:48;4.80;;;2.50;;
70301;SDS011;57706;56.326;43.882;2023-04-27T09:06:54;7.07;;;2.92;;
70301;SDS011;57706;56.326;43.882;2023-04-27T09:09:20;3.53;;;2.17;;
70301;SDS011;57706;56.326;43.882;2023-04-27T09:11:47;6.68;;;2.33;;
70301;SDS011;57706;56.326;43.882;2023-04-27T09:14:15;4.93;;;2.63;;
70301;SDS011;57706;56.326;43.882;2023-04-27T09:16:42;8.55;;;3.70;;
70301;SDS011;57706;56.326;43.882;2023-04-27T09:19:08;5.03;;;3.00;;
70301;SDS011;57706;56.326;43.882;2023-04-27T09:21:34;6.43;;;3.10;;
70301;SDS011;57706;56.326;43.882;2023-04-27T09:24:10;5.70;;;2.65;;
70301;SDS011;57706;56.326;43.882;2023-04-27T09:26:37;6.30;;;2.80;;
70301;SDS011;57706;56.326;43.882;2023-04-27T09:29:03;13.88;;;3.60;;
70301;SDS011;57706;56.326;43.882;2023-04-27T09:31:29;14.85;;;7.00;;
70301;SDS011;57706;56.326;43.882;2023-04-27T09:34:04;17.40;;;6.88;;
70301;SDS011;57706;56.326;43.882;2023-04-27T09:36:30;7.82;;;5.00;;
70301;SDS011;57706;56.326;43.882;2023-04-27T09:39:01;8.25;;;4.68;;
70301;SDS011;57706;56.326;43.882;2023-04-27T09:41:31;4.20;;;3.22;;
70301;SDS011;57706;56.326;43.882;2023-04-27T09:43:57;7.70;;;3.55;;
70301;SDS011;57706;56.326;43.882;2023-04-27T09:46:24;4.80;;;3.28;;
70301;SDS011;57706;56.326;43.882;2023-04-27T09:48:52;3.58;;;2.55;;
70301;SDS011;57706;56.326;43.882;2023-04-27T09:51:20;9.15;;;2.75;;
70301;SDS011;57706;56.326;43.882;2023-04-27T09:53:50;5.40;;;2.63;;
70301;SDS011;57706;56.326;43.882;2023-04-27T09:56:27;3.92;;;2.55;;
70301;SDS011;57706;56.326;43.882;2023-04-27T10:01:46;5.65;;;3.05;;
70301;SDS011;57706;56.326;43.882;2023-04-27T10:07:09;4.88;;;2.58;;
70301;SDS011;57706;56.326;43.882;2023-04-27T10:09:40;3.58;;;2.53;;
70301;SDS011;57706;56.326;43.882;2023-04-27T10:12:14;3.58;;;2.72;;
70301;SDS011;57706;56.326;43.882;2023-04-27T10:17:17;3.88;;;2.58;;
70301;SDS011;57706;56.326;43.882;2023-04-27T10:19:54;7.45;;;3.22;;
70301;SDS011;57706;56.326;43.882;2023-04-27T10:25:19;5.20;;;2.90;;
70301;SDS011;57706;56.326;43.882;2023-04-27T10:27:53;3.33;;;2.65;;
70301;SDS011;57706;56.326;43.882;2023-04-27T10:30:21;5.07;;;3.38;;
70301;SDS011;57706;56.326;43.882;2023-04-27T10:32:50;4.32;;;2.92;;
70301;SDS011;57706;56.326;43.882;2023-04-27T10:35:18;5.80;;;2.72;;
70301;SDS011;57706;56.326;43.882;2023-04-27T10:37:45;2.00;;;1.80;;
70301;SDS011;57706;56.326;43.882;2023-04-27T10:40:12;2.53;;;2.00;;
70301;SDS011;57706;56.326;43.882;2023-04-27T10:42:43;2.35;;;2.03;;
70301;SDS011;57706;56.326;43.882;2023-04-27T10:45:10;3.53;;;2.42;;
70301;SDS011;57706;56.326;43.882;2023-04-27T10:47:38;3.45;;;3.10;;
70301;SDS011;57706;56.326;43.882;2023-04-27T10:50:06;5.45;;;2.78;;
70301;SDS011;57706;56.326;43.882;2023-04-27T10:52:44;4.53;;;2.38;;
70301;SDS011;57706;56.326;43.882;2023-04-27T10:55:22;5.25;;;3.15;;
70301;SDS011;57706;56.326;43.882;2023-04-27T10:57:49;4.90;;;2.83;;
70301;SDS011;57706;56.326;43.882;2023-04-27T11:00:25;5.32;;;2.95;;
70301;SDS011;57706;56.326;43.882;2023-04-27T11:02:55;5.55;;;2.90;;
70301;SDS011;57706;56.326;43.882;2023-04-27T11:05:33;3.33;;;2.20;;
70301;SDS011;57706;56.326;43.882;2023-04-27T11:08:18;3.85;;;2.35;;
70301;SDS011;57706;56.326;43.882;2023-04-27T11:10:46;6.90;;;2.65;;
70301;SDS011;57706;56.326;43.882;2023-04-27T11:13:16;3.95;;;2.00;;
70301;SDS011;57706;56.326;43.882;2023-04-27T11:15:44;4.07;;;2.17;;
70301;SDS011;57706;56.326;43.882;2023-04-27T11:18:12;7.35;;;2.25;;
70301;SDS011;57706;56.326;43.882;2023-04-27T11:20:40;8.25;;;2.72;;
70301;SDS011;57706;56.326;43.882;2023-04-27T11:23:06;6.32;;;2.10;;
70301;SDS011;57706;56.326;43.882;2023-04-27T11:25:35;9.20;;;2.20;;
70301;SDS011;57706;56.326;43.882;2023-04-27T11:28:02;6.07;;;2.00;;
70301;SDS011;57706;56.326;43.882;2023-04-27T11:30:29;8.93;;;2.28;;
70301;SDS011;57706;56.326;43.882;2023-04-27T11:32:55;5.15;;;2.58;;
70301;SDS011;57706;56.326;43.882;2023-04-27T11:35:31;3.97;;;2.15;;
70301;SDS011;57706;56.326;43.882;2023-04-27T11:38:00;6.22;;;2.70;;
70301;SDS011;57706;56.326;43.882;2023-04-27T11:40:26;5.63;;;1.95;;
70301;SDS011;57706;56.326;43.882;2023-04-27T11:42:58;2.88;;;2.08;;
70301;SDS011;57706;56.326;43.882;2023-04-27T11:45:28;2.55;;;2.33;;
70301;SDS011;57706;56.326;43.882;2023-04-27T11:47:57;5.03;;;2.40;;
70301;SDS011;57706;56.326;43.882;2023-04-27T11:50:23;6.07;;;2.40;;
70301;SDS011;57706;56.326;43.882;2023-04-27T11:52:51;3.13;;;2.22;;
70301;SDS011;57706;56.326;43.882;2023-04-27T11:55:20;2.47;;;1.40;;
70301;SDS011;57706;56.326;43.882;2023-04-27T11:57:47;4.40;;;1.75;;
70301;SDS011;57706;56.326;43.882;2023-04-27T12:00:13;2.38;;;1.77;;
70301;SDS011;57706;56.326;43.882;2023-04-27T12:02:42;3.05;;;1.58;;
70301;SDS011;57706;56.326;43.882;2023-04-27T12:05:09;5.45;;;1.70;;
70301;SDS011;57706;56.326;43.882;2023-04-27T12:07:36;2.45;;;1.90;;
70301;SDS011;57706;56.326;43.882;2023-04-27T12:10:04;3.63;;;2.03;;
70301;SDS011;57706;56.326;43.882;2023-04-27T12:12:32;5.13;;;2.00;;
70301;SDS011;57706;56.326;43.882;2023-04-27T12:14:58;1.55;;;1.42;;
70301;SDS011;57706;56.326;43.882;2023-04-27T12:17:24;2.38;;;2.00;;
70301;SDS011;57706;56.326;43.882;2023-04-27T12:19:51;3.65;;;1.95;;
70301;SDS011;57706;56.326;43.882;2023-04-27T12:22:16;3.28;;;1.42;;
70301;SDS011;57706;56.326;43.882;2023-04-27T12:24:42;3.50;;;1.73;;
70301;SDS011;57706;56.326;43.882;2023-04-27T12:27:08;2.72;;;1.80;;
70301;SDS011;57706;56.326;43.882;2023-04-27T12:29:34;2.30;;;1.88;;
70301;SDS011;57706;56.326;43.882;2023-04-27T12:32:01;2.10;;;1.85;;
70301;SDS011;57706;56.326;43.882;2023-04-27T12:34:27;2.95;;;1.30;;
70301;SDS011;57706;56.326;43.882;2023-04-27T12:36:53;2.85;;;1.50;;
70301;SDS011;57706;56.326;43.882;2023-04-27T12:39:20;2.25;;;1.75;;
70301;SDS011;57706;56.326;43.882;2023-04-27T12:44:17;9.52;;;3.90;;
70301;SDS011;57706;56.326;43.882;2023-04-27T12:46:43;2.97;;;2.47;;
70301;SDS011;57706;56.326;43.882;2023-04-27T12:49:10;2.38;;;2.17;;
70301;SDS011;57706;56.326;43.882;2023-04-27T12:51:39;2.85;;;1.58;;
70301;SDS011;57706;56.326;43.882;2023-04-27T12:54:07;3.63;;;1.65;;
70301;SDS011;57706;56.326;43.882;2023-04-27T12:56:34;4.03;;;2.33;;
70301;SDS011;57706;56.326;43.882;2023-04-27T12:59:00;5.55;;;2.10;;
70301;SDS011;57706;56.326;43.882;2023-04-27T13:01:26;2.75;;;1.83;;
70301;SDS011;57706;56.326;43.882;2023-04-27T13:03:53;4.45;;;1.60;;
70301;SDS011;57706;56.326;43.882;2023-04-27T13:06:20;1.77;;;1.65;;
70301;SDS011;57706;56.326;43.882;2023-04-27T13:08:49;2.03;;;1.90;;
70301;SDS011;57706;56.326;43.882;2023-04-27T13:11:16;4.85;;;1.88;;
70301;SDS011;57706;56.326;43.882;2023-04-27T13:13:42;4.72;;;1.83;;
70301;SDS011;57706;56.326;43.882;2023-04-27T13:16:12;2.40;;;2.05;;
70301;SDS011;57706;56.326;43.882;2023-04-27T13:18:38;4.43;;;2.15;;
70301;SDS011;57706;56.326;43.882;2023-04-27T13:21:06;4.07;;;2.22;;
70301;SDS011;57706;56.326;43.882;2023-04-27T13:23:33;7.72;;;2.40;;
70301;SDS011;57706;56.326;43.882;2023-04-27T13:25:59;2.95;;;2.47;;
70301;SDS011;57706;56.326;43.882;2023-04-27T13:28:25;6.15;;;2.47;;
70301;SDS011;57706;56.326;43.882;2023-04-27T13:30:51;2.03;;;1.83;;
70301;SDS011;57706;56.326;43.882;2023-04-27T13:33:17;5.88;;;2.00;;
70301;SDS011;57706;56.326;43.882;2023-04-27T13:35:43;8.48;;;2.25;;
70301;SDS011;57706;56.326;43.882;2023-04-27T13:38:10;3.53;;;2.08;;
70301;SDS011;57706;56.326;43.882;2023-04-27T13:40:35;3.55;;;2.03;;
70301;SDS011;57706;56.326;43.882;2023-04-27T13:43:02;7.78;;;2.42;;
70301;SDS011;57706;56.326;43.882;2023-04-27T13:45:27;7.45;;;2.70;;
70301;SDS011;57706;56.326;43.882;2023-04-27T13:47:53;7.10;;;2.10;;
70301;SDS011;57706;56.326;43.882;2023-04-27T13:50:19;3.67;;;2.15;;
70301;SDS011;57706;56.326;43.882;2023-04-27T13:52:45;5.40;;;2.45;;
70301;SDS011;57706;56.326;43.882;2023-04-27T13:55:11;6.38;;;2.50;;
70301;SDS011;57706;56.326;43.882;2023-04-27T13:57:37;3.17;;;2.17;;
70301;SDS011;57706;56.326;43.882;2023-04-27T14:00:03;2.50;;;2.28;;
70301;SDS011;57706;56.326;43.882;2023-04-27T14:02:33;2.45;;;2.25;;
70301;SDS011;57706;56.326;43.882;2023-04-27T14:04:59;5.80;;;1.92;;
70301;SDS011;57706;56.326;43.882;2023-04-27T14:07:25;8.30;;;2.38;;
70301;SDS011;57706;56.326;43.882;2023-04-27T14:09:51;5.70;;;2.30;;
70301;SDS011;57706;56.326;43.882;2023-04-27T14:12:18;5.50;;;2.38;;
70301;SDS011;57706;56.326;43.882;2023-04-27T14:14:44;4.63;;;2.30;;
70301;SDS011;57706;56.326;43.882;2023-04-27T14:17:11;6.50;;;2.25;;
70301;SDS011;57706;56.326;43.882;2023-04-27T14:19:37;8.45;;;2.40;;
70301;SDS011;57706;56.326;43.882;2023-04-27T14:22:03;7.60;;;2.20;;
70301;SDS011;57706;56.326;43.882;2023-04-27T14:24:30;3.30;;;2.50;;
70301;SDS011;57706;56.326;43.882;2023-04-27T14:26:56;4.72;;;2.35;;
70301;SDS011;57706;56.326;43.882;2023-04-27T14:29:22;5.45;;;2.60;;
70301;SDS011;57706;56.326;43.882;2023-04-27T14:31:50;5.60;;;2.53;;
70301;SDS011;57706;56.326;43.882;2023-04-27T14:34:16;5.25;;;2.15;;
70301;SDS011;57706;56.326;43.882;2023-04-27T14:36:42;7.90;;;2.47;;
70301;SDS011;57706;56.326;43.882;2023-04-27T14:39:08;8.93;;;2.38;;
70301;SDS011;57706;56.326;43.882;2023-04-27T14:41:34;6.78;;;2.80;;
70301;SDS011;57706;56.326;43.882;2023-04-27T14:44:02;3.78;;;2.60;;
70301;SDS011;57706;56.326;43.882;2023-04-27T14:46:32;5.15;;;2.58;;